sensor_id;sensor_type;location;lat;lon;timestamp;P1;durP1;ratioP1;P2;durP2;ratioP2
72949;SDS011;62720;45.710;9.590;2022-08-18T00:01:16;14.95;;;6.20;;
72949;SDS011;62720;45.710;9.590;2022-08-18T00:03:42;13.95;;;5.35;;
72949;SDS011;62720;45.710;9.590;2022-08-18T00:06:08;11.98;;;5.85;;
72949;SDS011;62720;45.710;9.590;2022-08-18T00:08:33;14.43;;;6.18;;
72949;SDS011;62720;45.710;9.590;2022-08-18T00:10:58;16.75;;;5.57;;
72949;SDS011;62720;45.710;9.590;2022-08-18T00:13:24;10.70;;;5.40;;
72949;SDS011;62720;45.710;9.590;2022-08-18T00:15:49;16.35;;;5.90;;
72949;SDS011;62720;45.710;9.590;2022-08-18T00:18:14;14.87;;;5.80;;
72949;SDS011;62720;45.710;9.590;2022-08-18T00:20:40;11.55;;;5.97;;
72949;SDS011;62720;45.710;9.590;2022-08-18T00:23:05;11.60;;;5.65;;
72949;SDS011;62720;45.710;9.590;2022-08-18T00:25:31;11.93;;;5.88;;
72949;SDS011;62720;45.710;9.590;2022-08-18T00:27:56;13.95;;;6.07;;
72949;SDS011;62720;45.710;9.590;2022-08-18T00:30:21;11.90;;;5.50;;
72949;SDS011;62720;45.710;9.590;2022-08-18T00:32:49;11.45;;;5.60;;
72949;SDS011;62720;45.710;9.590;2022-08-18T00:35:19;9.98;;;5.22;;
72949;SDS011;62720;45.710;9.590;2022-08-18T00:37:45;13.63;;;6.25;;
72949;SDS011;62720;45.710;9.590;2022-08-18T00:40:12;10.63;;;5.07;;
72949;SDS011;62720;45.710;9.590;2022-08-18T00:42:43;13.18;;;5.72;;
72949;SDS011;62720;45.710;9.590;2022-08-18T00:45:09;10.68;;;5.05;;
72949;SDS011;62720;45.710;9.590;2022-08-18T00:47:36;12.40;;;5.15;;
72949;SDS011;62720;45.710;9.590;2022-08-18T00:50:02;12.20;;;6.10;;
72949;SDS011;62720;45.710;9.590;2022-08-18T00:52:28;15.63;;;5.63;;
72949;SDS011;62720;45.710;9.590;2022-08-18T00:54:53;14.68;;;5.40;;
72949;SDS011;62720;45.710;9.590;2022-08-18T00:57:19;12.88;;;6.13;;
72949;SDS011;62720;45.710;9.590;2022-08-18T00:59:53;10.02;;;5.30;;
72949;SDS011;62720;45.710;9.590;2022-08-18T01:02:27;16.45;;;5.82;;
72949;SDS011;62720;45.710;9.590;2022-08-18T01:04:58;14.50;;;6.03;;
72949;SDS011;62720;45.710;9.590;2022-08-18T01:07:26;13.65;;;5.82;;
72949;SDS011;62720;45.710;9.590;2022-08-18T01:09:54;13.93;;;5.90;;
72949;SDS011;62720;45.710;9.590;2022-08-18T01:12:19;12.30;;;5.30;;
72949;SDS011;62720;45.710;9.590;2022-08-18T01:14:45;11.83;;;5.20;;
72949;SDS011;62720;45.710;9.590;2022-08-18T01:17:11;15.82;;;5.45;;
72949;SDS011;62720;45.710;9.590;2022-08-18T01:19:55;14.32;;;5.03;;
72949;SDS011;62720;45.710;9.590;2022-08-18T01:25:12;11.48;;;5.20;;
72949;SDS011;62720;45.710;9.590;2022-08-18T01:27:56;10.15;;;4.97;;
72949;SDS011;62720;45.710;9.590;2022-08-18T01:30:22;11.20;;;4.80;;
72949;SDS011;62720;45.710;9.590;2022-08-18T01:32:50;12.68;;;5.53;;
72949;SDS011;62720;45.710;9.590;2022-08-18T01:35:16;11.77;;;5.28;;
72949;SDS011;62720;45.710;9.590;2022-08-18T01:37:42;13.43;;;5.47;;
72949;SDS011;62720;45.710;9.590;2022-08-18T01:40:08;11.52;;;5.53;;
72949;SDS011;62720;45.710;9.590;2022-08-18T01:42:34;13.57;;;5.05;;
72949;SDS011;62720;45.710;9.590;2022-08-18T01:45:00;11.95;;;5.28;;
72949;SDS011;62720;45.710;9.590;2022-08-18T01:47:28;12.18;;;5.18;;
72949;SDS011;62720;45.710;9.590;2022-08-18T01:49:53;11.03;;;5.37;;
72949;SDS011;62720;45.710;9.590;2022-08-18T01:52:19;12.05;;;4.97;;
72949;SDS011;62720;45.710;9.590;2022-08-18T01:54:46;11.18;;;5.03;;
72949;SDS011;62720;45.710;9.590;2022-08-18T01:57:11;15.43;;;5.65;;
72949;SDS011;62720;45.710;9.590;2022-08-18T01:59:38;10.20;;;5.57;;
72949;SDS011;62720;45.710;9.590;2022-08-18T02:02:04;12.70;;;5.53;;
72949;SDS011;62720;45.710;9.590;2022-08-18T02:04:29;15.15;;;4.97;;
72949;SDS011;62720;45.710;9.590;2022-08-18T02:06:57;11.20;;;5.55;;
72949;SDS011;62720;45.710;9.590;2022-08-18T02:09:22;12.27;;;5.80;;
72949;SDS011;62720;45.710;9.590;2022-08-18T02:11:47;13.23;;;5.70;;
72949;SDS011;62720;45.710;9.590;2022-08-18T02:14:13;11.75;;;5.25;;
72949;SDS011;62720;45.710;9.590;2022-08-18T02:16:38;10.87;;;5.10;;
72949;SDS011;62720;45.710;9.590;2022-08-18T02:19:03;13.65;;;4.63;;
72949;SDS011;62720;45.710;9.590;2022-08-18T02:21:28;12.05;;;4.50;;
72949;SDS011;62720;45.710;9.590;2022-08-18T02:23:54;11.57;;;4.53;;
72949;SDS011;62720;45.710;9.590;2022-08-18T02:26:19;10.52;;;4.50;;
72949;SDS011;62720;45.710;9.590;2022-08-18T02:28:44;15.75;;;5.18;;
72949;SDS011;62720;45.710;9.590;2022-08-18T02:31:14;12.13;;;5.05;;
72949;SDS011;62720;45.710;9.590;2022-08-18T02:33:41;12.63;;;4.78;;
72949;SDS011;62720;45.710;9.590;2022-08-18T02:36:06;10.88;;;4.95;;
72949;SDS011;62720;45.710;9.590;2022-08-18T02:38:32;9.05;;;4.80;;
72949;SDS011;62720;45.710;9.590;2022-08-18T02:40:58;9.93;;;4.75;;
72949;SDS011;62720;45.710;9.590;2022-08-18T02:43:25;15.48;;;4.93;;
72949;SDS011;62720;45.710;9.590;2022-08-18T02:45:51;11.57;;;4.90;;
72949;SDS011;62720;45.710;9.590;2022-08-18T02:48:16;11.13;;;4.68;;
72949;SDS011;62720;45.710;9.590;2022-08-18T02:50:45;11.35;;;4.40;;
72949;SDS011;62720;45.710;9.590;2022-08-18T02:53:11;13.05;;;4.28;;
72949;SDS011;62720;45.710;9.590;2022-08-18T02:55:43;12.38;;;5.13;;
72949;SDS011;62720;45.710;9.590;2022-08-18T02:58:08;11.88;;;4.55;;
72949;SDS011;62720;45.710;9.590;2022-08-18T03:00:35;11.15;;;4.60;;
72949;SDS011;62720;45.710;9.590;2022-08-18T03:03:00;12.13;;;4.57;;
72949;SDS011;62720;45.710;9.590;2022-08-18T03:05:25;11.23;;;4.20;;
72949;SDS011;62720;45.710;9.590;2022-08-18T03:07:53;11.13;;;4.68;;
72949;SDS011;62720;45.710;9.590;2022-08-18T03:10:18;12.70;;;4.80;;
72949;SDS011;62720;45.710;9.590;2022-08-18T03:12:43;13.40;;;5.05;;
72949;SDS011;62720;45.710;9.590;2022-08-18T03:15:08;14.47;;;5.23;;
72949;SDS011;62720;45.710;9.590;2022-08-18T03:17:36;12.82;;;4.97;;
72949;SDS011;62720;45.710;9.590;2022-08-18T03:20:02;9.18;;;4.68;;
72949;SDS011;62720;45.710;9.590;2022-08-18T03:22:27;11.77;;;4.50;;
72949;SDS011;62720;45.710;9.590;2022-08-18T03:24:52;13.52;;;4.78;;
72949;SDS011;62720;45.710;9.590;2022-08-18T03:27:18;13.18;;;4.70;;
72949;SDS011;62720;45.710;9.590;2022-08-18T03:29:43;11.65;;;4.65;;
72949;SDS011;62720;45.710;9.590;2022-08-18T03:32:08;11.17;;;4.50;;
72949;SDS011;62720;45.710;9.590;2022-08-18T03:34:34;10.93;;;4.32;;
72949;SDS011;62720;45.710;9.590;2022-08-18T03:36:59;12.10;;;4.43;;
72949;SDS011;62720;45.710;9.590;2022-08-18T03:39:25;10.88;;;4.60;;
72949;SDS011;62720;45.710;9.590;2022-08-18T03:41:52;9.70;;;3.63;;
72949;SDS011;62720;45.710;9.590;2022-08-18T03:44:18;9.10;;;4.25;;
72949;SDS011;62720;45.710;9.590;2022-08-18T03:46:44;11.63;;;4.50;;
72949;SDS011;62720;45.710;9.590;2022-08-18T03:49:09;10.10;;;4.53;;
72949;SDS011;62720;45.710;9.590;2022-08-18T03:51:34;11.27;;;4.60;;
72949;SDS011;62720;45.710;9.590;2022-08-18T03:54:01;12.00;;;5.13;;
72949;SDS011;62720;45.710;9.590;2022-08-18T03:56:31;10.00;;;4.55;;
72949;SDS011;62720;45.710;9.590;2022-08-18T03:58:58;10.27;;;3.80;;
72949;SDS011;62720;45.710;9.590;2022-08-18T04:01:26;13.40;;;5.13;;
72949;SDS011;62720;45.710;9.590;2022-08-18T04:03:53;10.50;;;4.75;;
72949;SDS011;62720;45.710;9.590;2022-08-18T04:06:25;9.95;;;4.50;;
72949;SDS011;62720;45.710;9.590;2022-08-18T04:08:51;10.70;;;4.80;;
72949;SDS011;62720;45.710;9.590;2022-08-18T04:11:17;9.85;;;4.43;;
72949;SDS011;62720;45.710;9.590;2022-08-18T04:13:42;11.80;;;4.55;;
72949;SDS011;62720;45.710;9.590;2022-08-18T04:16:07;18.17;;;5.30;;
72949;SDS011;62720;45.710;9.590;2022-08-18T04:18:33;10.60;;;4.40;;
72949;SDS011;62720;45.710;9.590;2022-08-18T04:21:06;10.93;;;4.40;;
72949;SDS011;62720;45.710;9.590;2022-08-18T04:23:35;14.80;;;5.18;;
72949;SDS011;62720;45.710;9.590;2022-08-18T04:26:02;13.45;;;4.35;;
72949;SDS011;62720;45.710;9.590;2022-08-18T04:28:27;11.85;;;3.95;;
72949;SDS011;62720;45.710;9.590;2022-08-18T04:30:53;13.35;;;4.45;;
72949;SDS011;62720;45.710;9.590;2022-08-18T04:33:23;13.30;;;4.28;;
72949;SDS011;62720;45.710;9.590;2022-08-18T04:35:48;12.18;;;4.55;;
72949;SDS011;62720;45.710;9.590;2022-08-18T04:38:13;10.10;;;4.03;;
72949;SDS011;62720;45.710;9.590;2022-08-18T04:40:39;9.93;;;4.38;;
72949;SDS011;62720;45.710;9.590;2022-08-18T04:43:05;10.00;;;4.50;;
72949;SDS011;62720;45.710;9.590;2022-08-18T04:45:35;10.90;;;4.30;;
72949;SDS011;62720;45.710;9.590;2022-08-18T04:48:03;12.20;;;4.00;;
72949;SDS011;62720;45.710;9.590;2022-08-18T04:50:28;13.43;;;4.65;;
72949;SDS011;62720;45.710;9.590;2022-08-18T04:52:54;12.03;;;4.47;;
72949;SDS011;62720;45.710;9.590;2022-08-18T04:55:38;11.38;;;4.43;;
72949;SDS011;62720;45.710;9.590;2022-08-18T04:58:03;12.43;;;4.57;;
72949;SDS011;62720;45.710;9.590;2022-08-18T05:00:28;10.30;;;4.40;;
72949;SDS011;62720;45.710;9.590;2022-08-18T05:02:55;11.88;;;5.28;;
72949;SDS011;62720;45.710;9.590;2022-08-18T05:05:21;11.40;;;5.18;;
72949;SDS011;62720;45.710;9.590;2022-08-18T05:07:47;11.77;;;5.65;;
72949;SDS011;62720;45.710;9.590;2022-08-18T05:10:14;13.43;;;5.13;;
72949;SDS011;62720;45.710;9.590;2022-08-18T05:15:07;17.27;;;6.23;;
72949;SDS011;62720;45.710;9.590;2022-08-18T05:17:32;14.50;;;6.03;;
72949;SDS011;62720;45.710;9.590;2022-08-18T05:20:01;14.23;;;5.88;;
72949;SDS011;62720;45.710;9.590;2022-08-18T05:25:03;16.00;;;6.05;;
72949;SDS011;62720;45.710;9.590;2022-08-18T05:27:34;13.07;;;5.65;;
72949;SDS011;62720;45.710;9.590;2022-08-18T05:30:00;13.10;;;5.88;;
72949;SDS011;62720;45.710;9.590;2022-08-18T05:32:26;15.82;;;6.72;;
72949;SDS011;62720;45.710;9.590;2022-08-18T05:34:55;12.30;;;6.18;;
72949;SDS011;62720;45.710;9.590;2022-08-18T05:37:29;13.93;;;7.75;;
72949;SDS011;62720;45.710;9.590;2022-08-18T05:39:58;18.35;;;7.85;;
72949;SDS011;62720;45.710;9.590;2022-08-18T05:42:25;20.08;;;8.98;;
72949;SDS011;62720;45.710;9.590;2022-08-18T05:44:53;14.88;;;7.78;;
72949;SDS011;62720;45.710;9.590;2022-08-18T05:49:47;17.88;;;8.45;;
72949;SDS011;62720;45.710;9.590;2022-08-18T05:52:35;18.30;;;8.25;;
72949;SDS011;62720;45.710;9.590;2022-08-18T05:55:08;17.50;;;7.85;;
72949;SDS011;62720;45.710;9.590;2022-08-18T05:57:54;16.45;;;8.20;;
72949;SDS011;62720;45.710;9.590;2022-08-18T06:00:21;15.40;;;7.85;;
72949;SDS011;62720;45.710;9.590;2022-08-18T06:05:31;15.55;;;8.07;;
72949;SDS011;62720;45.710;9.590;2022-08-18T06:08:07;13.13;;;7.32;;
72949;SDS011;62720;45.710;9.590;2022-08-18T06:10:33;17.15;;;7.47;;
72949;SDS011;62720;45.710;9.590;2022-08-18T06:13:06;14.90;;;7.47;;
72949;SDS011;62720;45.710;9.590;2022-08-18T06:15:41;16.40;;;8.35;;
72949;SDS011;62720;45.710;9.590;2022-08-18T06:18:16;15.07;;;8.88;;
72949;SDS011;62720;45.710;9.590;2022-08-18T06:23:33;18.85;;;8.63;;
72949;SDS011;62720;45.710;9.590;2022-08-18T06:26:06;13.95;;;8.32;;
72949;SDS011;62720;45.710;9.590;2022-08-18T06:28:38;17.98;;;8.90;;
72949;SDS011;62720;45.710;9.590;2022-08-18T06:31:16;19.35;;;9.20;;
72949;SDS011;62720;45.710;9.590;2022-08-18T06:33:47;20.40;;;9.25;;
72949;SDS011;62720;45.710;9.590;2022-08-18T06:49:00;18.90;;;7.68;;
72949;SDS011;62720;45.710;9.590;2022-08-18T06:51:27;16.88;;;7.57;;
72949;SDS011;62720;45.710;9.590;2022-08-18T06:53:57;18.25;;;8.13;;
72949;SDS011;62720;45.710;9.590;2022-08-18T07:01:49;20.42;;;9.85;;
72949;SDS011;62720;45.710;9.590;2022-08-18T07:06:55;19.60;;;9.90;;
72949;SDS011;62720;45.710;9.590;2022-08-18T07:09:22;17.02;;;9.02;;
72949;SDS011;62720;45.710;9.590;2022-08-18T07:11:58;14.15;;;6.70;;
72949;SDS011;62720;45.710;9.590;2022-08-18T07:14:24;17.13;;;7.78;;
72949;SDS011;62720;45.710;9.590;2022-08-18T07:16:50;17.92;;;7.05;;
72949;SDS011;62720;45.710;9.590;2022-08-18T07:19:29;13.77;;;6.75;;
72949;SDS011;62720;45.710;9.590;2022-08-18T07:22:09;16.25;;;7.22;;
72949;SDS011;62720;45.710;9.590;2022-08-18T07:24:39;13.80;;;6.05;;
72949;SDS011;62720;45.710;9.590;2022-08-18T07:29:35;13.63;;;4.90;;
72949;SDS011;62720;45.710;9.590;2022-08-18T07:32:03;11.35;;;5.10;;
72949;SDS011;62720;45.710;9.590;2022-08-18T07:34:31;16.20;;;5.10;;
72949;SDS011;62720;45.710;9.590;2022-08-18T07:37:02;19.10;;;5.07;;
72949;SDS011;62720;45.710;9.590;2022-08-18T07:41:55;14.55;;;4.20;;
72949;SDS011;62720;45.710;9.590;2022-08-18T07:47:50;13.10;;;3.97;;
72949;SDS011;62720;45.710;9.590;2022-08-18T07:49:55;12.75;;;3.88;;
72949;SDS011;62720;45.710;9.590;2022-08-18T07:53:01;13.75;;;3.75;;
72949;SDS011;62720;45.710;9.590;2022-08-18T07:55:28;11.95;;;3.70;;
72949;SDS011;62720;45.710;9.590;2022-08-18T08:13:20;12.73;;;3.22;;
72949;SDS011;62720;45.710;9.590;2022-08-18T08:21:16;9.73;;;4.50;;
72949;SDS011;62720;45.710;9.590;2022-08-18T08:23:47;12.00;;;4.68;;
72949;SDS011;62720;45.710;9.590;2022-08-18T08:26:22;12.30;;;5.28;;
72949;SDS011;62720;45.710;9.590;2022-08-18T08:33:44;24.53;;;7.27;;
72949;SDS011;62720;45.710;9.590;2022-08-18T08:36:17;15.07;;;7.43;;
72949;SDS011;62720;45.710;9.590;2022-08-18T08:38:45;15.57;;;7.63;;
72949;SDS011;62720;45.710;9.590;2022-08-18T08:43:39;12.07;;;6.55;;
72949;SDS011;62720;45.710;9.590;2022-08-18T08:46:20;15.02;;;7.10;;
72949;SDS011;62720;45.710;9.590;2022-08-18T08:48:49;15.13;;;7.85;;
72949;SDS011;62720;45.710;9.590;2022-08-18T08:53:46;17.83;;;8.55;;
72949;SDS011;62720;45.710;9.590;2022-08-18T08:56:15;15.85;;;9.20;;
72949;SDS011;62720;45.710;9.590;2022-08-18T08:58:54;15.57;;;8.52;;
72949;SDS011;62720;45.710;9.590;2022-08-18T09:09:44;15.90;;;7.95;;
72949;SDS011;62720;45.710;9.590;2022-08-18T09:18:02;15.43;;;8.10;;
72949;SDS011;62720;45.710;9.590;2022-08-18T09:20:10;12.98;;;7.95;;
72949;SDS011;62720;45.710;9.590;2022-08-18T09:25:31;15.43;;;8.77;;
72949;SDS011;62720;45.710;9.590;2022-08-18T09:30:38;18.52;;;9.68;;
72949;SDS011;62720;45.710;9.590;2022-08-18T09:33:20;18.08;;;9.38;;
72949;SDS011;62720;45.710;9.590;2022-08-18T09:38:18;15.70;;;8.27;;
72949;SDS011;62720;45.710;9.590;2022-08-18T09:41:47;14.60;;;8.40;;
72949;SDS011;62720;45.710;9.590;2022-08-18T09:52:46;14.68;;;8.32;;
72949;SDS011;62720;45.710;9.590;2022-08-18T09:55:05;15.18;;;8.05;;
72949;SDS011;62720;45.710;9.590;2022-08-18T09:57:32;19.13;;;9.90;;
72949;SDS011;62720;45.710;9.590;2022-08-18T10:05:24;24.27;;;10.27;;
72949;SDS011;62720;45.710;9.590;2022-08-18T10:10:52;20.50;;;11.07;;
72949;SDS011;62720;45.710;9.590;2022-08-18T10:15:48;20.87;;;11.50;;
72949;SDS011;62720;45.710;9.590;2022-08-18T10:18:23;20.02;;;10.95;;
72949;SDS011;62720;45.710;9.590;2022-08-18T10:21:14;22.05;;;12.10;;
72949;SDS011;62720;45.710;9.590;2022-08-18T10:28:57;21.02;;;11.77;;
72949;SDS011;62720;45.710;9.590;2022-08-18T10:31:23;24.45;;;13.88;;
72949;SDS011;62720;45.710;9.590;2022-08-18T10:39:03;19.13;;;12.63;;
72949;SDS011;62720;45.710;9.590;2022-08-18T10:44:33;17.20;;;11.70;;
72949;SDS011;62720;45.710;9.590;2022-08-18T10:47:01;18.55;;;11.85;;
72949;SDS011;62720;45.710;9.590;2022-08-18T10:49:27;20.67;;;12.05;;
72949;SDS011;62720;45.710;9.590;2022-08-18T10:52:39;21.02;;;12.70;;
72949;SDS011;62720;45.710;9.590;2022-08-18T10:57:17;17.63;;;12.45;;
72949;SDS011;62720;45.710;9.590;2022-08-18T10:59:51;25.98;;;12.48;;
72949;SDS011;62720;45.710;9.590;2022-08-18T11:04:48;22.15;;;13.05;;
72949;SDS011;62720;45.710;9.590;2022-08-18T11:07:19;19.77;;;12.02;;
72949;SDS011;62720;45.710;9.590;2022-08-18T11:09:47;20.50;;;12.85;;
72949;SDS011;62720;45.710;9.590;2022-08-18T11:12:33;20.45;;;12.27;;
72949;SDS011;62720;45.710;9.590;2022-08-18T11:15:07;21.27;;;13.38;;
72949;SDS011;62720;45.710;9.590;2022-08-18T11:20:00;22.58;;;12.48;;
72949;SDS011;62720;45.710;9.590;2022-08-18T11:22:30;22.88;;;14.35;;
72949;SDS011;62720;45.710;9.590;2022-08-18T11:24:56;18.67;;;11.63;;
72949;SDS011;62720;45.710;9.590;2022-08-18T11:27:22;23.70;;;14.18;;
72949;SDS011;62720;45.710;9.590;2022-08-18T11:29:48;22.77;;;13.95;;
72949;SDS011;62720;45.710;9.590;2022-08-18T11:34:46;23.38;;;14.55;;
72949;SDS011;62720;45.710;9.590;2022-08-18T11:39:48;24.10;;;12.77;;
72949;SDS011;62720;45.710;9.590;2022-08-18T11:42:15;23.25;;;14.13;;
72949;SDS011;62720;45.710;9.590;2022-08-18T11:44:41;22.90;;;13.07;;
72949;SDS011;62720;45.710;9.590;2022-08-18T11:47:08;21.33;;;12.82;;
72949;SDS011;62720;45.710;9.590;2022-08-18T11:49:33;18.55;;;11.82;;
72949;SDS011;62720;45.710;9.590;2022-08-18T11:52:02;17.63;;;10.15;;
72949;SDS011;62720;45.710;9.590;2022-08-18T11:54:40;14.00;;;9.23;;
72949;SDS011;62720;45.710;9.590;2022-08-18T11:59:50;12.05;;;7.65;;
72949;SDS011;62720;45.710;9.590;2022-08-18T12:02:16;12.70;;;7.93;;
72949;SDS011;62720;45.710;9.590;2022-08-18T12:05:01;14.25;;;8.95;;
72949;SDS011;62720;45.710;9.590;2022-08-18T12:07:32;16.58;;;9.10;;
72949;SDS011;62720;45.710;9.590;2022-08-18T12:12:45;14.50;;;8.65;;
72949;SDS011;62720;45.710;9.590;2022-08-18T12:17:46;10.63;;;7.28;;
72949;SDS011;62720;45.710;9.590;2022-08-18T12:20:12;13.35;;;7.85;;
72949;SDS011;62720;45.710;9.590;2022-08-18T12:22:39;13.30;;;7.90;;
72949;SDS011;62720;45.710;9.590;2022-08-18T12:25:06;10.65;;;7.20;;
72949;SDS011;62720;45.710;9.590;2022-08-18T12:27:31;11.80;;;6.57;;
72949;SDS011;62720;45.710;9.590;2022-08-18T12:29:56;11.83;;;6.77;;
72949;SDS011;62720;45.710;9.590;2022-08-18T12:32:23;12.95;;;7.15;;
72949;SDS011;62720;45.710;9.590;2022-08-18T12:34:49;12.35;;;6.32;;
72949;SDS011;62720;45.710;9.590;2022-08-18T12:37:15;15.80;;;7.30;;
72949;SDS011;62720;45.710;9.590;2022-08-18T12:39:41;13.40;;;6.75;;
72949;SDS011;62720;45.710;9.590;2022-08-18T12:42:07;20.95;;;8.00;;
72949;SDS011;62720;45.710;9.590;2022-08-18T12:44:32;29.77;;;6.82;;
72949;SDS011;62720;45.710;9.590;2022-08-18T12:46:59;17.50;;;5.80;;
72949;SDS011;62720;45.710;9.590;2022-08-18T12:52:17;28.20;;;3.85;;
72949;SDS011;62720;45.710;9.590;2022-08-18T12:54:43;21.58;;;3.63;;
72949;SDS011;62720;45.710;9.590;2022-08-18T12:57:24;12.23;;;3.45;;
72949;SDS011;62720;45.710;9.590;2022-08-18T12:59:49;16.33;;;3.90;;
72949;SDS011;62720;45.710;9.590;2022-08-18T13:02:15;7.60;;;3.13;;
72949;SDS011;62720;45.710;9.590;2022-08-18T13:04:41;6.70;;;2.80;;
72949;SDS011;62720;45.710;9.590;2022-08-18T13:07:07;6.85;;;2.42;;
72949;SDS011;62720;45.710;9.590;2022-08-18T13:09:33;11.25;;;2.67;;
72949;SDS011;62720;45.710;9.590;2022-08-18T13:11:58;8.43;;;2.55;;
72949;SDS011;62720;45.710;9.590;2022-08-18T13:14:24;9.05;;;2.63;;
72949;SDS011;62720;45.710;9.590;2022-08-18T13:16:50;8.48;;;2.70;;
72949;SDS011;62720;45.710;9.590;2022-08-18T13:19:17;8.98;;;3.20;;
72949;SDS011;62720;45.710;9.590;2022-08-18T13:21:43;9.43;;;3.25;;
72949;SDS011;62720;45.710;9.590;2022-08-18T13:24:09;10.75;;;3.25;;
72949;SDS011;62720;45.710;9.590;2022-08-18T13:26:36;9.82;;;3.80;;
72949;SDS011;62720;45.710;9.590;2022-08-18T13:29:07;9.45;;;3.53;;
72949;SDS011;62720;45.710;9.590;2022-08-18T13:33:59;8.50;;;3.20;;
72949;SDS011;62720;45.710;9.590;2022-08-18T13:36:25;6.75;;;3.10;;
72949;SDS011;62720;45.710;9.590;2022-08-18T13:38:51;7.82;;;3.58;;
72949;SDS011;62720;45.710;9.590;2022-08-18T13:41:18;8.93;;;3.90;;
72949;SDS011;62720;45.710;9.590;2022-08-18T13:43:57;8.10;;;3.78;;
72949;SDS011;62720;45.710;9.590;2022-08-18T13:46:35;7.03;;;4.15;;
72949;SDS011;62720;45.710;9.590;2022-08-18T13:49:48;7.93;;;3.97;;
72949;SDS011;62720;45.710;9.590;2022-08-18T13:52:19;9.52;;;4.10;;
72949;SDS011;62720;45.710;9.590;2022-08-18T13:54:47;8.13;;;3.65;;
72949;SDS011;62720;45.710;9.590;2022-08-18T13:57:20;8.38;;;3.88;;
72949;SDS011;62720;45.710;9.590;2022-08-18T13:59:48;7.68;;;3.50;;
72949;SDS011;62720;45.710;9.590;2022-08-18T14:02:14;12.75;;;3.72;;
72949;SDS011;62720;45.710;9.590;2022-08-18T14:04:44;8.85;;;3.55;;
72949;SDS011;62720;45.710;9.590;2022-08-18T14:07:09;28.30;;;4.00;;
72949;SDS011;62720;45.710;9.590;2022-08-18T14:12:06;8.25;;;3.40;;
72949;SDS011;62720;45.710;9.590;2022-08-18T14:14:33;11.27;;;3.90;;
72949;SDS011;62720;45.710;9.590;2022-08-18T14:17:35;9.00;;;3.60;;
72949;SDS011;62720;45.710;9.590;2022-08-18T14:23:33;44.90;;;4.88;;
72949;SDS011;62720;45.710;9.590;2022-08-18T14:26:17;10.60;;;3.30;;
72949;SDS011;62720;45.710;9.590;2022-08-18T14:29:12;11.73;;;3.90;;
72949;SDS011;62720;45.710;9.590;2022-08-18T14:31:48;21.15;;;5.03;;
72949;SDS011;62720;45.710;9.590;2022-08-18T14:34:14;13.40;;;3.75;;
72949;SDS011;62720;45.710;9.590;2022-08-18T14:36:39;11.55;;;3.50;;
72949;SDS011;62720;45.710;9.590;2022-08-18T14:39:05;11.20;;;3.92;;
72949;SDS011;62720;45.710;9.590;2022-08-18T14:41:30;22.35;;;3.67;;
72949;SDS011;62720;45.710;9.590;2022-08-18T14:43:56;8.35;;;3.55;;
72949;SDS011;62720;45.710;9.590;2022-08-18T14:46:22;8.00;;;3.30;;
72949;SDS011;62720;45.710;9.590;2022-08-18T14:48:48;8.82;;;3.33;;
72949;SDS011;62720;45.710;9.590;2022-08-18T14:51:13;8.10;;;3.15;;
72949;SDS011;62720;45.710;9.590;2022-08-18T14:53:39;7.60;;;3.30;;
72949;SDS011;62720;45.710;9.590;2022-08-18T14:56:05;6.88;;;2.33;;
72949;SDS011;62720;45.710;9.590;2022-08-18T14:58:32;5.22;;;1.90;;
72949;SDS011;62720;45.710;9.590;2022-08-18T15:00:59;7.85;;;2.15;;
72949;SDS011;62720;45.710;9.590;2022-08-18T15:03:28;6.25;;;1.40;;
72949;SDS011;62720;45.710;9.590;2022-08-18T15:05:56;8.38;;;1.60;;
72949;SDS011;62720;45.710;9.590;2022-08-18T15:08:21;8.55;;;1.70;;
72949;SDS011;62720;45.710;9.590;2022-08-18T15:10:47;7.25;;;1.60;;
72949;SDS011;62720;45.710;9.590;2022-08-18T15:13:13;5.55;;;1.70;;
72949;SDS011;62720;45.710;9.590;2022-08-18T15:15:39;7.07;;;1.70;;
72949;SDS011;62720;45.710;9.590;2022-08-18T15:18:06;6.38;;;1.88;;
72949;SDS011;62720;45.710;9.590;2022-08-18T15:20:32;4.47;;;1.45;;
72949;SDS011;62720;45.710;9.590;2022-08-18T15:22:58;5.20;;;1.55;;
72949;SDS011;62720;45.710;9.590;2022-08-18T15:25:43;5.20;;;1.40;;
72949;SDS011;62720;45.710;9.590;2022-08-18T15:28:16;5.97;;;1.50;;
72949;SDS011;62720;45.710;9.590;2022-08-18T15:30:45;4.90;;;1.38;;
72949;SDS011;62720;45.710;9.590;2022-08-18T15:33:12;7.88;;;2.13;;
72949;SDS011;62720;45.710;9.590;2022-08-18T15:35:40;7.97;;;2.00;;
72949;SDS011;62720;45.710;9.590;2022-08-18T15:38:06;7.32;;;1.92;;
72949;SDS011;62720;45.710;9.590;2022-08-18T15:40:31;9.95;;;2.65;;
72949;SDS011;62720;45.710;9.590;2022-08-18T15:42:57;7.40;;;1.90;;
72949;SDS011;62720;45.710;9.590;2022-08-18T15:45:26;8.15;;;2.05;;
72949;SDS011;62720;45.710;9.590;2022-08-18T15:47:52;6.93;;;2.20;;
72949;SDS011;62720;45.710;9.590;2022-08-18T15:50:18;5.85;;;1.83;;
72949;SDS011;62720;45.710;9.590;2022-08-18T15:52:47;7.30;;;2.40;;
72949;SDS011;62720;45.710;9.590;2022-08-18T15:55:14;7.10;;;2.20;;
72949;SDS011;62720;45.710;9.590;2022-08-18T15:57:39;6.95;;;2.00;;
72949;SDS011;62720;45.710;9.590;2022-08-18T16:00:04;6.90;;;2.17;;
72949;SDS011;62720;45.710;9.590;2022-08-18T16:02:30;5.63;;;2.10;;
72949;SDS011;62720;45.710;9.590;2022-08-18T16:04:55;5.47;;;1.70;;
72949;SDS011;62720;45.710;9.590;2022-08-18T16:07:20;7.60;;;2.00;;
72949;SDS011;62720;45.710;9.590;2022-08-18T16:09:46;6.57;;;1.60;;
72949;SDS011;62720;45.710;9.590;2022-08-18T16:12:11;11.38;;;2.63;;
72949;SDS011;62720;45.710;9.590;2022-08-18T16:14:38;8.80;;;1.93;;
72949;SDS011;62720;45.710;9.590;2022-08-18T16:17:04;9.43;;;1.90;;
72949;SDS011;62720;45.710;9.590;2022-08-18T16:19:29;8.80;;;2.27;;
72949;SDS011;62720;45.710;9.590;2022-08-18T16:21:54;7.07;;;2.30;;
72949;SDS011;62720;45.710;9.590;2022-08-18T16:24:20;8.18;;;2.28;;
72949;SDS011;62720;45.710;9.590;2022-08-18T16:26:49;6.18;;;2.28;;
72949;SDS011;62720;45.710;9.590;2022-08-18T16:29:16;20.70;;;2.90;;
72949;SDS011;62720;45.710;9.590;2022-08-18T16:31:41;9.07;;;2.25;;
72949;SDS011;62720;45.710;9.590;2022-08-18T16:34:06;12.18;;;2.50;;
72949;SDS011;62720;45.710;9.590;2022-08-18T16:36:31;9.13;;;2.40;;
72949;SDS011;62720;45.710;9.590;2022-08-18T16:38:57;7.73;;;2.00;;
72949;SDS011;62720;45.710;9.590;2022-08-18T16:41:22;8.60;;;2.17;;
72949;SDS011;62720;45.710;9.590;2022-08-18T16:43:47;11.98;;;1.90;;
72949;SDS011;62720;45.710;9.590;2022-08-18T16:46:17;9.27;;;1.90;;
72949;SDS011;62720;45.710;9.590;2022-08-18T16:48:42;9.30;;;1.73;;
72949;SDS011;62720;45.710;9.590;2022-08-18T16:51:13;8.75;;;2.10;;
72949;SDS011;62720;45.710;9.590;2022-08-18T16:53:38;7.50;;;1.88;;
72949;SDS011;62720;45.710;9.590;2022-08-18T16:56:09;7.20;;;2.20;;
72949;SDS011;62720;45.710;9.590;2022-08-18T16:58:34;6.53;;;2.03;;
72949;SDS011;62720;45.710;9.590;2022-08-18T17:01:18;6.18;;;1.58;;
72949;SDS011;62720;45.710;9.590;2022-08-18T17:04:01;8.52;;;2.20;;
72949;SDS011;62720;45.710;9.590;2022-08-18T17:06:35;7.72;;;2.80;;
72949;SDS011;62720;45.710;9.590;2022-08-18T17:09:01;9.93;;;2.80;;
72949;SDS011;62720;45.710;9.590;2022-08-18T17:11:26;6.80;;;2.50;;
72949;SDS011;62720;45.710;9.590;2022-08-18T17:13:52;7.70;;;2.28;;
72949;SDS011;62720;45.710;9.590;2022-08-18T17:16:18;6.80;;;2.13;;
72949;SDS011;62720;45.710;9.590;2022-08-18T17:18:44;6.57;;;2.10;;
72949;SDS011;62720;45.710;9.590;2022-08-18T17:21:11;6.13;;;2.50;;
72949;SDS011;62720;45.710;9.590;2022-08-18T17:23:36;9.90;;;3.10;;
72949;SDS011;62720;45.710;9.590;2022-08-18T17:26:02;11.48;;;2.88;;